createdAt,value
2018-01-05T00:00:35.364Z,81.1
2018-01-05T00:01:36.026Z,81.4
2018-01-05T00:02:36.686Z,81.8
2018-01-05T00:03:37.390Z,81.6
2018-01-05T00:04:38.009Z,81.7
2018-01-05T00:05:38.668Z,81.4
2018-01-05T00:06:39.330Z,81.6
2018-01-05T00:07:39.991Z,81.6
2018-01-05T00:08:40.652Z,81.8
2018-01-05T00:09:41.314Z,81.3
2018-01-05T00:10:41.975Z,81.8
2018-01-05T00:11:42.636Z,82.1
2018-01-05T00:12:43.296Z,81.4
2018-01-05T00:13:43.958Z,82.0
2018-01-05T00:14:44.619Z,81.3
2018-01-05T00:15:45.280Z,81.3
2018-01-05T00:16:45.941Z,81.1
2018-01-05T00:17:46.600Z,80.6
2018-01-05T00:18:47.263Z,80.3
2018-01-05T00:19:47.924Z,80.4
2018-01-05T00:20:48.585Z,80.5
2018-01-05T00:21:49.247Z,80.3
2018-01-05T00:22:49.906Z,80.3
2018-01-05T00:23:50.571Z,80.5
2018-01-05T00:24:51.266Z,80.4
2018-01-05T00:25:51.926Z,80.0
2018-01-05T00:26:52.588Z,79.5
2018-01-05T00:27:53.250Z,79.5
2018-01-05T00:28:53.912Z,80.1
2018-01-05T00:29:54.576Z,79.5
2018-01-05T00:30:55.235Z,79.4
2018-01-05T00:31:55.898Z,79.6
2018-01-05T00:32:56.557Z,79.3
2018-01-05T00:33:57.219Z,79.8
2018-01-05T00:34:57.915Z,79.6
2018-01-05T00:35:58.575Z,79.6
2018-01-05T00:36:59.238Z,79.8
2018-01-05T00:37:59.900Z,79.6
2018-01-05T00:39:00.603Z,79.7
2018-01-05T00:40:01.266Z,79.8
2018-01-05T00:41:01.997Z,79.5
2018-01-05T00:42:02.623Z,79.5
2018-01-05T00:43:03.283Z,79.8
2018-01-05T00:44:03.944Z,79.9
2018-01-05T00:45:04.604Z,79.4
2018-01-05T00:46:05.265Z,79.7
2018-01-05T00:47:05.926Z,79.7
2018-01-05T00:48:06.585Z,79.4
2018-01-05T00:49:07.245Z,79.4
2018-01-05T00:50:07.940Z,78.8
2018-01-05T00:51:08.600Z,78.6
2018-01-05T00:52:09.260Z,78.2
2018-01-05T00:53:09.919Z,77.6
2018-01-05T00:54:10.581Z,77.0
2018-01-05T00:55:11.242Z,77.1
2018-01-05T00:56:11.902Z,76.7
2018-01-05T00:57:12.562Z,76.7
2018-01-05T00:58:13.225Z,76.2
2018-01-05T00:59:13.920Z,76.7
2018-01-05T01:00:14.581Z,76.5
2018-01-05T01:01:15.242Z,76.5
2018-01-05T01:02:15.902Z,76.3
2018-01-05T01:03:16.563Z,77.2
2018-01-05T01:04:17.224Z,76.5
2018-01-05T01:05:17.885Z,76.4
2018-01-05T01:06:18.546Z,76.3
2018-01-05T01:07:19.214Z,76.3
2018-01-05T01:08:19.902Z,77.1
2018-01-05T01:09:20.565Z,77.0
2018-01-05T01:10:21.260Z,76.5
2018-01-05T01:11:21.921Z,76.5
2018-01-05T01:12:22.583Z,76.3
2018-01-05T01:13:23.245Z,76.3
2018-01-05T01:14:23.907Z,76.3
2018-01-05T01:15:24.619Z,76.4
2018-01-05T01:16:25.279Z,76.4
2018-01-05T01:17:25.938Z,77.1
2018-01-05T01:18:26.599Z,76.6
2018-01-05T01:19:27.259Z,76.9
2018-01-05T01:20:27.922Z,76.3
2018-01-05T01:21:28.581Z,76.5
2018-01-05T01:22:29.242Z,76.5
2018-01-05T01:23:29.908Z,76.4
2018-01-05T01:24:30.601Z,76.5
2018-01-05T01:25:31.261Z,76.7
2018-01-05T01:26:31.923Z,76.6
2018-01-05T01:27:32.584Z,76.7
2018-01-05T01:28:33.247Z,76.9
2018-01-05T01:29:33.907Z,76.5
2018-01-05T01:30:34.570Z,76.8
2018-01-05T01:31:35.232Z,76.5
2018-01-05T01:32:35.894Z,76.3
2018-01-05T01:33:36.555Z,76.1
2018-01-05T01:34:37.216Z,76.4
2018-01-05T01:35:37.876Z,77.1
2018-01-05T01:36:38.539Z,76.5
2018-01-05T01:37:39.236Z,76.5
2018-01-05T01:38:39.897Z,76.3
2018-01-05T01:39:40.593Z,75.6
2018-01-05T01:40:41.252Z,76.3
2018-01-05T01:41:41.913Z,76.3
2018-01-05T01:42:42.571Z,75.7
2018-01-05T01:43:43.232Z,76.3
2018-01-05T01:44:43.891Z,75.6
2018-01-05T01:45:44.549Z,75.5
2018-01-05T01:46:45.210Z,75.7
2018-01-05T01:47:45.871Z,75.7
2018-01-05T01:48:46.530Z,75.9
2018-01-05T01:49:47.193Z,75.7
2018-01-05T01:50:47.888Z,75.5
2018-01-05T01:51:48.549Z,75.5
2018-01-05T01:52:49.209Z,75.0
2018-01-05T01:53:49.870Z,74.7
2018-01-05T01:54:50.530Z,74.7
2018-01-05T01:55:51.190Z,75.5
2018-01-05T01:56:51.850Z,74.9
2018-01-05T01:57:52.511Z,75.2
2018-01-05T01:58:53.172Z,74.9
2018-01-05T01:59:53.832Z,75.0
2018-01-05T02:00:54.546Z,75.7
2018-01-05T02:01:55.237Z,75.2
2018-01-05T02:02:55.896Z,75.3
2018-01-05T02:03:56.555Z,75.8
2018-01-05T02:04:57.217Z,75.4
2018-01-05T02:05:57.874Z,74.8
2018-01-05T02:06:58.534Z,74.6
2018-01-05T02:07:59.195Z,75.4
2018-01-05T02:08:59.892Z,74.8
2018-01-05T02:10:00.552Z,74.9
2018-01-05T02:11:01.214Z,74.6
2018-01-05T02:12:01.876Z,74.7
2018-01-05T02:13:02.538Z,75.1
2018-01-05T02:14:03.199Z,74.8
2018-01-05T02:15:03.861Z,74.9
2018-01-05T02:16:04.571Z,74.7
2018-01-05T02:17:05.231Z,74.8
2018-01-05T02:18:05.889Z,74.8
2018-01-05T02:19:06.547Z,74.7
2018-01-05T02:20:07.206Z,74.6
2018-01-05T02:21:07.867Z,74.6
2018-01-05T02:22:08.527Z,75.3
2018-01-05T02:23:09.224Z,74.9
2018-01-05T02:24:09.883Z,74.4
2018-01-05T02:25:10.545Z,74.8
2018-01-05T02:26:11.206Z,74.7
2018-01-05T02:27:11.866Z,74.3
2018-01-05T02:28:12.528Z,74.9
2018-01-05T02:29:13.189Z,74.4
2018-01-05T02:30:13.851Z,74.3
2018-01-05T02:31:14.512Z,74.3
2018-01-05T02:32:15.174Z,74.9
2018-01-05T02:33:15.834Z,74.3
2018-01-05T02:34:16.496Z,74.2
2018-01-05T02:35:17.156Z,74.8
2018-01-05T02:36:17.817Z,74.9
2018-01-05T02:37:18.476Z,74.9
2018-01-05T02:38:19.136Z,74.9
2018-01-05T02:39:19.799Z,74.9
2018-01-05T02:40:20.456Z,75.0
2018-01-05T02:41:21.118Z,74.9
2018-01-05T02:42:21.778Z,75.0
2018-01-05T02:43:22.438Z,75.4
2018-01-05T02:44:23.099Z,75.7
2018-01-05T02:45:23.761Z,75.5
2018-01-05T02:46:24.673Z,75.5
2018-01-05T02:47:25.368Z,76.2
2018-01-05T02:48:26.026Z,76.2
2018-01-05T02:49:26.685Z,75.9
2018-01-05T02:50:27.343Z,76.6
2018-01-05T02:51:28.000Z,76.9
2018-01-05T02:52:28.660Z,77.1
2018-01-05T02:53:29.319Z,76.5
2018-01-05T02:54:29.977Z,76.5
2018-01-05T02:55:30.636Z,76.4
2018-01-05T02:56:31.296Z,76.4
2018-01-05T02:57:31.956Z,76.3
2018-01-05T02:58:32.616Z,76.3
2018-01-05T02:59:33.276Z,76.7
2018-01-05T03:00:33.936Z,76.0
2018-01-05T03:01:34.681Z,76.6
2018-01-05T03:02:35.341Z,77.3
2018-01-05T03:03:36.001Z,77.0
2018-01-05T03:04:36.662Z,77.2
2018-01-05T03:05:37.322Z,77.2
2018-01-05T03:06:37.982Z,76.9
2018-01-05T03:07:38.640Z,77.4
2018-01-05T03:08:39.300Z,77.4
2018-01-05T03:09:39.958Z,77.9
2018-01-05T03:10:40.617Z,77.6
2018-01-05T03:11:41.332Z,78.0
2018-01-05T03:12:41.986Z,77.4
2018-01-05T03:13:42.645Z,77.6
2018-01-05T03:14:43.309Z,78.4
2018-01-05T03:15:43.964Z,78.0
2018-01-05T03:16:44.674Z,77.8
2018-01-05T03:17:45.335Z,78.1
2018-01-05T03:18:45.993Z,78.0
2018-01-05T03:19:46.653Z,77.4
2018-01-05T03:20:47.312Z,77.4
2018-01-05T03:21:47.972Z,76.2
2018-01-05T03:22:48.632Z,77.0
2018-01-05T03:23:49.292Z,76.9
2018-01-05T03:24:49.951Z,76.4
2018-01-05T03:25:50.618Z,76.5
2018-01-05T03:26:51.271Z,76.6
2018-01-05T03:27:51.930Z,76.2
2018-01-05T03:28:52.590Z,76.0
2018-01-05T03:29:53.254Z,76.2
2018-01-05T03:30:53.909Z,76.5
2018-01-05T03:31:54.619Z,76.1
2018-01-05T03:32:55.280Z,76.0
2018-01-05T03:33:55.939Z,75.9
2018-01-05T03:34:56.598Z,75.5
2018-01-05T03:35:57.258Z,75.6
2018-01-05T03:36:57.918Z,75.5
2018-01-05T03:37:58.595Z,75.4
2018-01-05T03:38:59.237Z,75.8
2018-01-05T03:39:59.897Z,75.6
2018-01-05T03:41:00.558Z,75.5
2018-01-05T03:42:01.218Z,75.5
2018-01-05T03:43:01.913Z,75.5
2018-01-05T03:44:02.572Z,75.5
2018-01-05T03:45:03.232Z,75.4
2018-01-05T03:46:03.891Z,74.9
2018-01-05T03:47:04.552Z,75.5
2018-01-05T03:48:05.210Z,75.2
2018-01-05T03:49:05.870Z,75.2
2018-01-05T03:50:06.531Z,75.4
2018-01-05T03:51:07.227Z,75.5
2018-01-05T03:52:07.889Z,75.6
2018-01-05T03:53:08.549Z,75.7
2018-01-05T03:54:09.210Z,76.2
2018-01-05T03:55:09.870Z,76.2
2018-01-05T03:56:10.530Z,75.9
2018-01-05T03:57:11.190Z,75.9
2018-01-05T03:58:11.851Z,76.2
2018-01-05T03:59:12.512Z,76.2
2018-01-05T04:00:13.172Z,76.2
2018-01-05T04:01:13.833Z,76.3
2018-01-05T04:02:14.496Z,76.4
2018-01-05T04:03:15.155Z,76.7
2018-01-05T04:04:15.814Z,76.9
2018-01-05T04:05:16.475Z,76.6
2018-01-05T04:06:17.136Z,77.0
2018-01-05T04:07:17.796Z,76.8
2018-01-05T04:08:18.457Z,76.4
2018-01-05T04:09:19.116Z,76.4
2018-01-05T04:10:19.776Z,76.7
2018-01-05T04:11:20.437Z,76.4
2018-01-05T04:12:21.097Z,76.4
2018-01-05T04:13:21.756Z,77.1
2018-01-05T04:14:22.417Z,76.0
2018-01-05T04:15:23.076Z,76.2
2018-01-05T04:16:23.737Z,77.2
2018-01-05T04:17:24.397Z,76.6
2018-01-05T04:18:25.064Z,76.6
2018-01-05T04:19:25.752Z,77.4
2018-01-05T04:20:26.413Z,77.2
2018-01-05T04:21:27.073Z,77.2
2018-01-05T04:22:27.734Z,77.0
2018-01-05T04:23:28.396Z,77.0
2018-01-05T04:24:29.092Z,76.8
2018-01-05T04:25:29.750Z,76.8
2018-01-05T04:26:30.445Z,77.0
2018-01-05T04:27:31.104Z,77.2
2018-01-05T04:28:31.764Z,77.2
2018-01-05T04:29:32.423Z,77.4
2018-01-05T04:30:33.083Z,77.2
2018-01-05T04:31:33.743Z,77.4
2018-01-05T04:32:34.404Z,77.3
2018-01-05T04:33:35.063Z,77.7
2018-01-05T04:34:35.724Z,77.6
2018-01-05T04:35:36.383Z,77.7
2018-01-05T04:36:37.044Z,77.6
2018-01-05T04:37:37.707Z,77.8
2018-01-05T04:38:38.366Z,77.6
2018-01-05T04:39:39.059Z,77.6
2018-01-05T04:40:39.719Z,77.3
2018-01-05T04:41:40.379Z,77.9
2018-01-05T04:42:41.038Z,77.6
2018-01-05T04:43:41.697Z,78.0
2018-01-05T04:44:42.392Z,78.0
2018-01-05T04:45:43.052Z,78.0
2018-01-05T04:46:43.712Z,78.0
2018-01-05T04:47:44.371Z,78.3
2018-01-05T04:48:45.032Z,78.1
2018-01-05T04:49:45.727Z,78.1
2018-01-05T04:50:46.388Z,78.4
2018-01-05T04:51:47.050Z,78.7
2018-01-05T04:52:47.710Z,78.5
2018-01-05T04:53:48.372Z,78.6
2018-01-05T04:54:49.031Z,78.8
2018-01-05T04:55:49.692Z,78.5
2018-01-05T04:56:50.353Z,78.9
2018-01-05T04:57:51.012Z,78.9
2018-01-05T04:58:51.673Z,78.5
2018-01-05T04:59:52.334Z,79.0
2018-01-05T05:00:52.996Z,78.6
2018-01-05T05:01:53.657Z,79.1
2018-01-05T05:02:54.316Z,79.1
2018-01-05T05:03:55.013Z,79.5
2018-01-05T05:04:55.674Z,79.0
2018-01-05T05:05:56.338Z,79.1
2018-01-05T05:06:56.995Z,79.0
2018-01-05T05:07:57.655Z,79.0
2018-01-05T05:08:58.317Z,78.8
2018-01-05T05:09:59.010Z,79.0
2018-01-05T05:10:59.668Z,78.7
2018-01-05T05:12:00.328Z,79.2
2018-01-05T05:13:00.986Z,78.9
2018-01-05T05:14:01.645Z,79.0
2018-01-05T05:15:02.304Z,79.2
2018-01-05T05:16:02.961Z,78.7
2018-01-05T05:17:03.620Z,79.1
2018-01-05T05:18:04.281Z,78.9
2018-01-05T05:19:04.940Z,78.8
2018-01-05T05:20:05.600Z,78.7
2018-01-05T05:21:06.260Z,78.9
2018-01-05T05:22:06.918Z,78.8
2018-01-05T05:23:07.577Z,78.8
2018-01-05T05:24:08.236Z,78.8
2018-01-05T05:25:08.932Z,79.0
2018-01-05T05:26:09.594Z,79.3
2018-01-05T05:27:10.250Z,79.1
2018-01-05T05:28:10.909Z,79.0
2018-01-05T05:29:11.567Z,78.8
2018-01-05T05:30:12.229Z,78.9
2018-01-05T05:31:12.887Z,79.0
2018-01-05T05:32:13.547Z,79.0
2018-01-05T05:33:14.207Z,79.1
2018-01-05T05:34:14.867Z,79.0
2018-01-05T05:35:15.527Z,79.0
2018-01-05T05:36:16.186Z,79.0
2018-01-05T05:37:16.846Z,79.0
2018-01-05T05:38:17.504Z,79.1
2018-01-05T05:39:18.165Z,78.7
2018-01-05T05:40:18.826Z,78.8
2018-01-05T05:41:19.486Z,78.9
2018-01-05T05:42:20.146Z,78.6
2018-01-05T05:43:20.809Z,78.6
2018-01-05T05:44:21.466Z,78.5
2018-01-05T05:45:22.127Z,78.5
2018-01-05T05:46:22.786Z,78.4
2018-01-05T05:47:23.446Z,78.4
2018-01-05T05:48:24.108Z,79.0
2018-01-05T05:49:24.766Z,78.6
2018-01-05T05:50:25.427Z,78.7
2018-01-05T05:51:26.087Z,78.9
2018-01-05T05:52:26.747Z,79.0
2018-01-05T05:53:27.407Z,78.9
2018-01-05T05:54:28.068Z,78.9
2018-01-05T05:55:28.735Z,79.2
2018-01-05T05:56:29.391Z,79.7
2018-01-05T05:57:30.047Z,79.7
2018-01-05T05:58:30.707Z,79.9
2018-01-05T05:59:31.367Z,79.6
2018-01-05T06:00:32.065Z,79.4
2018-01-05T06:01:32.726Z,79.5
2018-01-05T06:02:33.386Z,79.4
2018-01-05T06:03:34.048Z,79.9
2018-01-05T06:04:34.708Z,80.2
2018-01-05T06:05:35.370Z,80.5
2018-01-05T06:06:36.037Z,80.3
2018-01-05T06:07:36.691Z,80.5
2018-01-05T06:08:37.351Z,80.3
2018-01-05T06:09:38.048Z,80.3
2018-01-05T06:10:38.712Z,80.3
2018-01-05T06:11:39.406Z,80.5
2018-01-05T06:12:40.064Z,81.0
2018-01-05T06:13:40.723Z,80.9
2018-01-05T06:14:41.383Z,80.9
2018-01-05T06:15:42.042Z,80.9
2018-01-05T06:16:42.701Z,80.8
2018-01-05T06:17:43.360Z,80.8
2018-01-05T06:19:30.420Z,80.8
2018-01-05T06:20:31.082Z,81.7
2018-01-05T06:21:31.742Z,81.6
2018-01-05T06:22:32.402Z,81.8
2018-01-05T06:23:33.061Z,81.5
2018-01-05T06:24:33.721Z,81.9
2018-01-05T06:25:34.382Z,81.7
2018-01-05T06:26:35.042Z,81.9
2018-01-05T06:27:35.701Z,82.1
2018-01-05T06:28:36.361Z,82.5
2018-01-05T06:29:37.020Z,82.6
2018-01-05T06:30:37.680Z,82.6
2018-01-05T06:31:38.336Z,82.9
2018-01-05T06:32:38.995Z,82.9
2018-01-05T06:33:39.655Z,82.8
2018-01-05T06:34:40.316Z,82.9
2018-01-05T06:35:40.977Z,82.9
2018-01-05T06:36:41.637Z,83.4
2018-01-05T06:37:42.296Z,84.1
2018-01-05T06:38:42.956Z,84.1
2018-01-05T06:39:43.616Z,84.2
2018-01-05T06:40:44.277Z,85.2
2018-01-05T06:41:44.936Z,85.0
2018-01-05T06:42:45.598Z,85.1
2018-01-05T06:43:46.259Z,85.0
2018-01-05T06:44:46.918Z,85.3
2018-01-05T06:45:47.579Z,85.2
2018-01-05T06:46:48.239Z,85.1
2018-01-05T06:47:48.900Z,85.2
2018-01-05T06:48:49.560Z,85.3
2018-01-05T06:49:50.222Z,85.2
2018-01-05T06:50:50.885Z,85.4
2018-01-05T06:51:51.542Z,85.3
2018-01-05T06:52:52.204Z,85.2
2018-01-05T06:53:52.865Z,85.5
2018-01-05T06:54:53.526Z,85.9
2018-01-05T06:55:54.186Z,85.8
2018-01-05T06:56:54.848Z,85.6
2018-01-05T06:57:55.510Z,85.9
2018-01-05T06:58:56.171Z,86.4
2018-01-05T06:59:56.832Z,86.5
2018-01-05T07:00:57.491Z,86.2
2018-01-05T07:01:58.153Z,86.5
2018-01-05T07:02:58.812Z,86.4
2018-01-05T07:03:59.474Z,87.0
2018-01-05T07:05:00.136Z,86.9
2018-01-05T07:06:00.796Z,87.5
2018-01-05T07:07:01.456Z,87.3
2018-01-05T07:08:02.117Z,87.2
2018-01-05T07:09:02.778Z,87.3
2018-01-05T07:10:03.440Z,87.6
2018-01-05T07:11:04.099Z,88.0
2018-01-05T07:12:04.759Z,87.5
2018-01-05T07:13:05.419Z,87.9
2018-01-05T07:14:06.081Z,87.8
2018-01-05T07:15:06.741Z,87.7
2018-01-05T07:16:07.402Z,88.1
2018-01-05T07:17:08.062Z,88.3
2018-01-05T07:18:08.761Z,88.5
2018-01-05T07:19:09.427Z,88.2
2018-01-05T07:20:10.087Z,87.8
2018-01-05T07:21:10.749Z,88.4
2018-01-05T07:22:11.411Z,87.9
2018-01-05T07:23:12.072Z,87.8
2018-01-05T07:24:12.733Z,87.7
2018-01-05T07:25:13.395Z,88.4
2018-01-05T07:26:14.055Z,88.0
2018-01-05T07:27:14.717Z,88.4
2018-01-05T07:28:15.378Z,88.1
2018-01-05T07:29:16.042Z,88.4
2018-01-05T07:30:16.754Z,88.4
2018-01-05T07:31:17.415Z,87.8
2018-01-05T07:32:18.076Z,88.1
2018-01-05T07:33:18.737Z,87.8
2018-01-05T07:34:19.398Z,88.4
2018-01-05T07:35:20.058Z,88.1
2018-01-05T07:36:20.721Z,88.4
2018-01-05T07:37:21.382Z,88.5
2018-01-05T07:38:22.046Z,88.3
2018-01-05T07:39:22.707Z,88.4
2018-01-05T07:40:23.370Z,88.8
2018-01-05T07:41:24.032Z,88.9
2018-01-05T07:42:24.695Z,88.6
2018-01-05T07:43:25.359Z,88.8
2018-01-05T07:44:26.023Z,88.6
2018-01-05T07:45:26.688Z,89.2
2018-01-05T07:46:27.352Z,89.2
2018-01-05T07:47:28.014Z,89.6
2018-01-05T07:48:28.676Z,89.8
2018-01-05T07:49:29.339Z,89.7
2018-01-05T07:50:30.001Z,90.2
2018-01-05T07:51:30.662Z,90.1
2018-01-05T07:52:31.325Z,90.6
2018-01-05T07:53:31.988Z,91.0
2018-01-05T07:54:32.650Z,91.2
2018-01-05T07:55:33.314Z,92.3
2018-01-05T07:56:33.976Z,92.9
2018-01-05T07:57:34.640Z,93.4
2018-01-05T07:58:35.301Z,93.9
2018-01-05T07:59:35.962Z,93.9
2018-01-05T08:00:36.624Z,94.6
2018-01-05T08:01:37.286Z,95.5
2018-01-05T08:02:37.948Z,95.3
2018-01-05T08:03:38.610Z,95.8
2018-01-05T08:04:39.272Z,96.1
2018-01-05T08:05:39.933Z,96.1
2018-01-05T08:06:40.592Z,97.2
2018-01-05T08:07:41.253Z,97.2
2018-01-05T08:08:41.916Z,97.3
2018-01-05T08:09:42.579Z,97.1
2018-01-05T08:10:43.241Z,97.2
2018-01-05T08:11:43.904Z,97.4
2018-01-05T08:12:44.569Z,97.6
2018-01-05T08:13:45.234Z,98.5
2018-01-05T08:14:45.899Z,98.2
2018-01-05T08:15:46.562Z,98.2
2018-01-05T08:16:47.224Z,98.7
2018-01-05T08:17:47.887Z,97.9
2018-01-05T08:18:48.550Z,97.7
2018-01-05T08:19:49.216Z,97.9
2018-01-05T08:20:49.962Z,97.7
2018-01-05T08:21:50.661Z,98.2
2018-01-05T08:22:51.324Z,97.8
2018-01-05T08:23:52.024Z,97.6
2018-01-05T08:24:52.684Z,97.0
2018-01-05T08:25:53.348Z,97.3
2018-01-05T08:26:54.011Z,97.3
2018-01-05T08:27:54.675Z,97.2
2018-01-05T08:28:55.339Z,97.8
2018-01-05T08:29:56.003Z,97.8
2018-01-05T08:30:56.666Z,97.0
2018-01-05T08:31:57.328Z,97.7
2018-01-05T08:32:57.991Z,97.7
2018-01-05T08:33:58.655Z,97.6
2018-01-05T08:34:59.354Z,97.2
2018-01-05T08:36:00.021Z,97.3
2018-01-05T08:37:00.718Z,97.0
2018-01-05T08:38:01.380Z,96.7
2018-01-05T08:39:02.044Z,97.1
2018-01-05T08:40:02.708Z,96.6
2018-01-05T08:41:03.372Z,96.4
2018-01-05T08:42:04.040Z,96.5
2018-01-05T08:43:04.704Z,96.5
2018-01-05T08:44:05.369Z,96.5
2018-01-05T08:45:06.032Z,96.9
2018-01-05T08:46:06.695Z,96.9
2018-01-05T08:47:07.361Z,96.5
2018-01-05T08:48:08.061Z,96.1
2018-01-05T08:49:08.725Z,96.4
2018-01-05T08:50:09.390Z,96.4
2018-01-05T08:51:10.056Z,97.0
2018-01-05T08:52:10.719Z,96.7
2018-01-05T08:53:11.384Z,96.4
2018-01-05T08:54:12.085Z,96.5
2018-01-05T08:55:12.750Z,97.3
2018-01-05T08:56:13.414Z,97.0
2018-01-05T08:57:14.079Z,97.0
2018-01-05T08:58:14.745Z,96.8
2018-01-05T08:59:15.410Z,97.0
2018-01-05T09:00:16.075Z,96.9
2018-01-05T09:01:16.739Z,96.8
2018-01-05T09:02:17.404Z,96.5
2018-01-05T09:03:18.072Z,96.9
2018-01-05T09:04:18.737Z,96.3
2018-01-05T09:05:19.398Z,96.7
2018-01-05T09:06:20.063Z,96.5
2018-01-05T09:07:20.727Z,96.6
2018-01-05T09:08:21.392Z,96.6
2018-01-05T09:09:22.059Z,96.5
2018-01-05T09:10:22.725Z,96.0
2018-01-05T09:11:23.390Z,96.3
2018-01-05T09:12:24.054Z,96.4
2018-01-05T09:13:24.719Z,95.6
2018-01-05T09:14:25.383Z,95.8
2018-01-05T09:15:26.048Z,95.5
2018-01-05T09:16:26.714Z,95.1
2018-01-05T09:17:27.376Z,95.1
2018-01-05T09:18:28.041Z,95.4
2018-01-05T09:19:28.704Z,95.3
2018-01-05T09:20:29.367Z,95.3
2018-01-05T09:21:30.035Z,95.3
2018-01-05T09:22:30.699Z,94.7
2018-01-05T09:23:31.365Z,94.7
2018-01-05T09:24:32.028Z,94.4
2018-01-05T09:25:32.693Z,94.4
2018-01-05T09:26:33.358Z,94.6
2018-01-05T09:27:34.023Z,93.9
2018-01-05T09:28:34.689Z,93.8
2018-01-05T09:29:35.352Z,93.6
2018-01-05T09:30:36.016Z,93.3
2018-01-05T09:31:36.680Z,92.3
2018-01-05T09:32:37.344Z,92.2
2018-01-05T09:33:38.010Z,91.9
2018-01-05T09:34:38.678Z,91.4
2018-01-05T09:35:39.344Z,90.9
2018-01-05T09:36:40.009Z,90.9
2018-01-05T09:37:40.674Z,91.1
2018-01-05T09:38:41.340Z,90.5
2018-01-05T09:39:42.006Z,90.1
2018-01-05T09:40:42.673Z,89.6
2018-01-05T09:41:43.339Z,89.8
2018-01-05T09:42:44.042Z,89.6
2018-01-05T09:43:44.708Z,89.0
2018-01-05T09:44:45.376Z,88.7
2018-01-05T09:45:46.046Z,88.7
2018-01-05T09:46:46.710Z,88.7
2018-01-05T09:47:47.376Z,88.2
2018-01-05T09:48:48.043Z,88.4
2018-01-05T09:49:48.716Z,88.2
2018-01-05T09:50:49.378Z,87.6
2018-01-05T09:51:50.044Z,87.3
2018-01-05T09:52:50.710Z,87.3
2018-01-05T09:53:51.412Z,87.2
2018-01-05T09:54:52.113Z,86.7
2018-01-05T09:55:52.780Z,87.1
2018-01-05T09:56:53.446Z,87.6
2018-01-05T09:57:54.115Z,87.5
2018-01-05T09:58:54.784Z,87.4
2018-01-05T09:59:55.454Z,87.2
2018-01-05T10:00:56.121Z,87.3
2018-01-05T10:01:56.789Z,87.2
2018-01-05T10:02:57.457Z,87.4
2018-01-05T10:03:58.127Z,87.2
2018-01-05T10:04:58.796Z,87.2
2018-01-05T10:05:59.465Z,86.7
2018-01-05T10:07:00.165Z,86.0
2018-01-05T10:08:00.833Z,85.8
2018-01-05T10:09:01.503Z,86.0
2018-01-05T10:10:02.172Z,85.3
2018-01-05T10:11:02.842Z,85.0
2018-01-05T10:12:03.544Z,85.0
2018-01-05T10:13:04.210Z,84.3
2018-01-05T10:14:04.880Z,84.0
2018-01-05T10:15:05.549Z,84.0
2018-01-05T10:16:06.217Z,83.3
2018-01-05T10:17:06.885Z,84.1
2018-01-05T10:18:07.555Z,83.0
2018-01-05T10:19:08.221Z,82.7
2018-01-05T10:20:08.891Z,81.9
2018-01-05T10:21:09.564Z,82.0
2018-01-05T10:22:10.227Z,81.9
2018-01-05T10:23:10.895Z,81.6
2018-01-05T10:24:11.563Z,81.1
2018-01-05T10:25:12.230Z,81.0
2018-01-05T10:26:12.898Z,81.1
2018-01-05T10:27:13.565Z,81.7
2018-01-05T10:28:14.232Z,82.5
2018-01-05T10:29:14.898Z,82.1
2018-01-05T10:30:15.567Z,82.5
2018-01-05T10:31:16.236Z,82.6
2018-01-05T10:32:16.901Z,82.7
2018-01-05T10:33:17.569Z,82.7
2018-01-05T10:34:18.238Z,82.6
2018-01-05T10:35:18.908Z,82.9
2018-01-05T10:36:19.576Z,82.8
2018-01-05T10:37:20.243Z,83.0
2018-01-05T10:38:20.913Z,82.9
2018-01-05T10:39:21.619Z,83.1
2018-01-05T10:40:22.296Z,82.9
2018-01-05T10:41:22.962Z,82.2
2018-01-05T10:42:23.630Z,82.4
2018-01-05T10:43:24.296Z,82.5
2018-01-05T10:44:24.964Z,81.9
2018-01-05T10:45:25.630Z,81.6
2018-01-05T10:46:26.300Z,81.9
2018-01-05T10:47:27.007Z,81.4
2018-01-05T10:48:27.675Z,81.5
2018-01-05T10:49:28.341Z,81.0
2018-01-05T10:50:29.007Z,80.8
2018-01-05T10:51:29.675Z,81.4
2018-01-05T10:52:30.346Z,81.0
2018-01-05T10:53:31.046Z,80.9
2018-01-05T10:54:31.714Z,81.0
2018-01-05T10:55:32.388Z,81.2
2018-01-05T10:56:33.051Z,81.3
2018-01-05T10:57:33.725Z,81.0
2018-01-05T10:58:34.389Z,80.6
2018-01-05T10:59:35.056Z,80.6
2018-01-05T11:00:35.723Z,80.4
2018-01-05T11:01:36.393Z,80.7
2018-01-05T11:02:37.097Z,80.7
2018-01-05T11:03:37.766Z,80.9
2018-01-05T11:04:38.433Z,80.9
2018-01-05T11:05:39.104Z,80.6
2018-01-05T11:06:39.774Z,80.2
2018-01-05T11:07:40.449Z,80.4
2018-01-05T11:08:41.113Z,80.3
2018-01-05T11:09:41.782Z,80.3
2018-01-05T11:10:42.456Z,79.7
2018-01-05T11:11:43.120Z,80.2
2018-01-05T11:12:43.787Z,79.8
2018-01-05T11:13:44.491Z,79.9
2018-01-05T11:14:45.161Z,79.6
2018-01-05T11:15:45.830Z,79.2
2018-01-05T11:16:46.500Z,79.9
2018-01-05T11:17:47.169Z,79.7
2018-01-05T11:18:47.837Z,79.9
2018-01-05T11:19:48.507Z,79.7
2018-01-05T11:20:49.175Z,79.9
2018-01-05T11:21:49.843Z,79.9
2018-01-05T11:22:50.514Z,79.7
2018-01-05T11:23:51.185Z,80.0
2018-01-05T11:24:51.853Z,79.7
2018-01-05T11:25:52.523Z,79.7
2018-01-05T11:26:53.192Z,79.6
2018-01-05T11:27:53.863Z,79.2
2018-01-05T11:28:54.529Z,79.3
2018-01-05T11:29:55.198Z,79.9
2018-01-05T11:30:55.867Z,79.9
2018-01-05T11:31:56.537Z,79.3
2018-01-05T11:32:57.204Z,79.7
2018-01-05T11:33:57.874Z,79.6
2018-01-05T11:34:58.562Z,79.8
2018-01-05T11:35:59.211Z,80.0
2018-01-05T11:36:59.879Z,80.1
2018-01-05T11:38:00.599Z,79.7
2018-01-05T11:39:01.271Z,79.4
2018-01-05T11:40:01.936Z,79.5
2018-01-05T11:41:02.603Z,79.6
2018-01-05T11:42:03.291Z,79.0
2018-01-05T11:43:03.939Z,79.7
2018-01-05T11:44:04.607Z,79.9
2018-01-05T11:45:05.275Z,79.8
2018-01-05T11:46:05.945Z,79.8
2018-01-05T11:47:06.613Z,79.9
2018-01-05T11:48:07.281Z,79.7
2018-01-05T11:49:07.948Z,80.3
2018-01-05T11:50:08.616Z,80.6
2018-01-05T11:51:09.283Z,80.7
2018-01-05T11:52:09.951Z,80.1
2018-01-05T11:53:10.618Z,80.2
2018-01-05T11:54:11.285Z,79.8
2018-01-05T11:55:11.954Z,80.3
2018-01-05T11:56:12.622Z,80.5
2018-01-05T11:57:13.289Z,80.5
2018-01-05T11:58:13.957Z,81.0
2018-01-05T11:59:14.629Z,81.1
2018-01-05T12:00:15.292Z,81.0
2018-01-05T12:01:15.959Z,80.9
2018-01-05T12:02:16.625Z,80.9
2018-01-05T12:03:17.292Z,80.9
2018-01-05T12:04:17.961Z,80.9
2018-01-05T12:05:18.630Z,80.8
2018-01-05T12:06:19.298Z,80.9
2018-01-05T12:07:19.966Z,80.7
2018-01-05T12:08:20.634Z,81.0
2018-01-05T12:09:21.301Z,81.2
2018-01-05T12:10:21.969Z,81.0
2018-01-05T12:11:22.636Z,81.0
2018-01-05T12:12:23.307Z,80.6
2018-01-05T12:13:23.975Z,80.8
2018-01-05T12:14:24.642Z,81.1
2018-01-05T12:15:25.310Z,80.3
2018-01-05T12:16:25.978Z,81.0
2018-01-05T12:17:26.647Z,80.5
2018-01-05T12:18:27.315Z,80.2
2018-01-05T12:19:27.984Z,80.3
2018-01-05T12:20:28.650Z,80.1
2018-01-05T12:21:29.320Z,80.0
2018-01-05T12:22:29.990Z,80.1
2018-01-05T12:23:30.706Z,79.7
2018-01-05T12:24:31.375Z,79.8
2018-01-05T12:25:32.043Z,80.0
2018-01-05T12:26:32.708Z,79.8
2018-01-05T12:27:33.377Z,79.7
2018-01-05T12:28:34.046Z,79.3
2018-01-05T12:29:34.751Z,79.8
2018-01-05T12:30:35.420Z,79.8
2018-01-05T12:31:36.088Z,79.7
2018-01-05T12:32:36.756Z,80.2
2018-01-05T12:33:37.425Z,80.7
2018-01-05T12:34:38.129Z,80.4
2018-01-05T12:35:38.798Z,80.2
2018-01-05T12:36:39.464Z,80.6
2018-01-05T12:37:40.132Z,80.6
2018-01-05T12:38:40.798Z,80.4
2018-01-05T12:39:41.474Z,81.2
2018-01-05T12:40:42.137Z,80.5
2018-01-05T12:41:42.804Z,81.1
2018-01-05T12:42:43.471Z,80.6
2018-01-05T12:43:44.140Z,81.2
2018-01-05T12:44:44.809Z,81.3
2018-01-05T12:45:45.477Z,82.0
2018-01-05T12:46:46.144Z,82.9
2018-01-05T12:47:46.812Z,83.4
2018-01-05T12:48:47.481Z,84.4
2018-01-05T12:49:48.150Z,85.5
2018-01-05T12:50:48.817Z,86.2
2018-01-05T12:51:49.489Z,85.4
2018-01-05T12:52:50.153Z,85.5
2018-01-05T12:53:50.821Z,85.1
2018-01-05T12:54:51.644Z,84.8
2018-01-05T12:55:52.298Z,84.9
2018-01-05T12:56:52.964Z,84.4
2018-01-05T12:57:53.631Z,85.3
2018-01-05T12:58:54.349Z,84.6
2018-01-05T12:59:55.016Z,84.8
2018-01-05T13:00:55.684Z,84.4
2018-01-05T13:01:56.353Z,84.3
2018-01-05T13:02:57.021Z,83.6
2018-01-05T13:03:57.690Z,83.7
2018-01-05T13:04:58.357Z,84.1
2018-01-05T13:05:59.025Z,83.3
2018-01-05T13:06:59.693Z,83.0
2018-01-05T13:08:00.361Z,83.1
2018-01-05T13:09:01.079Z,83.6
2018-01-05T13:10:01.747Z,82.9
2018-01-05T13:11:02.415Z,82.6
2018-01-05T13:12:03.084Z,82.4
2018-01-05T13:13:03.752Z,82.6
2018-01-05T13:14:04.454Z,82.8
2018-01-05T13:15:05.123Z,83.1
2018-01-05T13:16:05.797Z,82.6
2018-01-05T13:17:06.464Z,82.8
2018-01-05T13:18:07.134Z,82.6
2018-01-05T13:19:07.833Z,82.7
2018-01-05T13:20:08.507Z,82.7
2018-01-05T13:21:09.171Z,83.2
2018-01-05T13:22:09.837Z,83.1
2018-01-05T13:23:10.506Z,82.4
2018-01-05T13:24:11.378Z,83.1
2018-01-05T13:25:12.015Z,83.0
2018-01-05T13:26:12.682Z,83.1
2018-01-05T13:27:13.349Z,82.8
2018-01-05T13:28:14.015Z,82.9